Time;durP1;ratioP1;P1;durP2;ratioP2;P2;SDS_P1;SDS_P2;PMS_P1;PMS_P2;Temp;Humidity;BMP_temperature;BMP_pressure;BME280_temperature;BME280_humidity;BME280_pressure;Samples;Min_cycle;Max_cycle;Signal;HPM_P1;HPM_P2
2023/10/08 00:01:55;;;;;;;0.60;0.60;;;;;;;;;;4978002;28;20054;-61
2023/10/08 00:04:20;;;;;;;0.50;0.50;;;;;;;;;;4981694;28;20050;-58
2023/10/08 00:06:52;;;;;;;0.43;0.43;;;;;;;;;;4979440;28;20629;-62
2023/10/08 00:09:20;;;;;;;0.50;0.50;;;;;;;;;;4975162;28;20038;-60
2023/10/08 00:11:51;;;;;;;0.52;0.52;;;;;;;;;;4975716;28;20050;-61
2023/10/08 00:14:21;;;;;;;0.50;0.50;;;;;;;;;;4978150;28;20091;-62
2023/10/08 00:16:49;;;;;;;0.50;0.50;;;;;;;;;;4972891;28;20058;-65
2023/10/08 00:19:17;;;;;;;0.50;0.50;;;;;;;;;;4981883;28;20348;-59
2023/10/08 00:21:44;;;;;;;0.50;0.50;;;;;;;;;;4976440;28;20054;-61
2023/10/08 00:24:10;;;;;;;;;;;;;;;;;;4975684;28;20551;-60
2023/10/08 00:26:39;;;;;;;0.50;0.50;;;;;;;;;;4977560;28;19918;-60
2023/10/08 00:29:06;;;;;;;0.50;0.50;;;;;;;;;;4978969;28;20031;-60
2023/10/08 00:31:38;;;;;;;0.50;0.50;;;;;;;;;;4973732;28;20041;-60
2023/10/08 00:34:11;;;;;;;0.50;0.50;;;;;;;;;;4974951;28;20532;-59
2023/10/08 00:36:37;;;;;;;0.40;0.40;;;;;;;;;;4978855;28;20042;-59
2023/10/08 00:39:07;;;;;;;0.50;0.50;;;;;;;;;;4981221;28;20029;-59
2023/10/08 00:41:33;;;;;;;0.50;0.50;;;;;;;;;;4978458;28;20035;-61
2023/10/08 00:43:59;;;;;;;0.50;0.50;;;;;;;;;;4961151;28;20080;-61
2023/10/08 00:46:27;;;;;;;0.50;0.50;;;;;;;;;;4974097;28;20043;-62
2023/10/08 00:48:56;;;;;;;0.50;0.50;;;;;;;;;;4993304;28;20034;-59
2023/10/08 00:53:57;;;;;;;0.50;0.50;;;;;;;;;;4977570;28;20035;-59
2023/10/08 00:56:25;;;;;;;0.40;0.40;;;;;;;;;;4974925;28;20047;-63
2023/10/08 00:58:53;;;;;;;0.52;0.52;;;;;;;;;;4979977;28;20045;-61
2023/10/08 01:01:20;;;;;;;0.50;0.50;;;;;;;;;;4980444;28;20033;-60
2023/10/08 01:03:54;;;;;;;;;;;;;;;;;;4998634;23;20046;-62
2023/10/08 01:06:20;;;;;;;0.50;0.50;;;;;;;;;;5019884;28;20000;-61
2023/10/08 01:08:52;;;;;;;0.50;0.50;;;;;;;;;;5003812;28;20555;-62
2023/10/08 01:11:17;;;;;;;0.50;0.50;;;;;;;;;;5007148;28;20032;-62
2023/10/08 01:13:45;;;;;;;0.50;0.50;;;;;;;;;;5003741;28;20025;-62
2023/10/08 01:16:11;;;;;;;0.50;0.50;;;;;;;;;;5005449;28;20973;-63
2023/10/08 01:18:36;;;;;;;0.50;0.50;;;;;;;;;;5005010;28;20121;-63
2023/10/08 01:21:11;;;;;;;0.50;0.50;;;;;;;;;;5005018;28;20526;-66
2023/10/08 01:23:38;;;;;;;0.50;0.50;;;;;;;;;;5005495;28;20045;-63
2023/10/08 01:26:11;;;;;;;0.60;0.60;;;;;;;;;;5008526;28;20113;-64
2023/10/08 01:28:37;;;;;;;0.50;0.50;;;;;;;;;;5006879;28;20112;-62
2023/10/08 01:31:03;;;;;;;0.50;0.50;;;;;;;;;;5006616;28;20105;-62
2023/10/08 01:33:37;;;;;;;0.57;0.57;;;;;;;;;;5007270;28;20103;-63
2023/10/08 01:36:04;;;;;;;0.50;0.50;;;;;;;;;;5004508;28;20456;-63
2023/10/08 01:38:30;;;;;;;0.60;0.60;;;;;;;;;;5020256;28;20034;-63
2023/10/08 01:40:56;;;;;;;0.60;0.60;;;;;;;;;;5005992;28;20077;-64
2023/10/08 01:43:21;;;;;;;0.52;0.52;;;;;;;;;;5006592;28;20508;-63
2023/10/08 01:45:51;;;;;;;0.60;0.60;;;;;;;;;;5022763;28;20045;-64
2023/10/08 01:48:20;;;;;;;0.60;0.60;;;;;;;;;;5007779;28;20053;-63
2023/10/08 01:50:47;;;;;;;0.57;0.57;;;;;;;;;;5005291;28;20117;-63
2023/10/08 01:53:15;;;;;;;0.60;0.60;;;;;;;;;;5005498;28;20033;-64
2023/10/08 01:55:49;;;;;;;0.50;0.50;;;;;;;;;;5020085;28;20050;-63
2023/10/08 01:58:18;;;;;;;0.50;0.50;;;;;;;;;;5004190;28;20518;-63
2023/10/08 02:00:47;;;;;;;0.50;0.50;;;;;;;;;;5001495;28;20087;-64
2023/10/08 02:03:15;;;;;;;0.50;0.50;;;;;;;;;;5001878;28;20109;-64
2023/10/08 02:05:42;;;;;;;0.52;0.52;;;;;;;;;;5021735;28;20455;-63
2023/10/08 02:08:08;;;;;;;0.60;0.60;;;;;;;;;;5021364;28;20037;-63
2023/10/08 02:10:33;;;;;;;0.52;0.52;;;;;;;;;;5021818;28;20077;-64
2023/10/08 02:12:59;;;;;;;0.60;0.60;;;;;;;;;;5006391;28;20053;-63
2023/10/08 02:15:26;;;;;;;0.50;0.50;;;;;;;;;;5004454;28;20451;-62
2023/10/08 02:17:51;;;;;;;0.60;0.60;;;;;;;;;;5004770;28;20029;-63
2023/10/08 02:20:17;;;;;;;0.60;0.60;;;;;;;;;;5004056;28;20041;-63
2023/10/08 02:22:42;;;;;;;0.55;0.55;;;;;;;;;;5007184;28;20033;-64
2023/10/08 02:25:11;;;;;;;0.52;0.52;;;;;;;;;;5004809;28;20088;-63
2023/10/08 02:27:37;;;;;;;0.50;0.50;;;;;;;;;;5005468;28;20133;-64
2023/10/08 02:30:05;;;;;;;0.60;0.60;;;;;;;;;;5002957;28;20109;-64
2023/10/08 02:32:31;;;;;;;0.57;0.57;;;;;;;;;;5004383;28;20033;-64
2023/10/08 02:34:57;;;;;;;0.60;0.60;;;;;;;;;;5005446;28;20048;-64
2023/10/08 02:37:23;;;;;;;0.60;0.60;;;;;;;;;;5005955;28;20858;-64
2023/10/08 02:39:48;;;;;;;0.60;0.60;;;;;;;;;;5013208;28;20029;-63
2023/10/08 02:42:14;;;;;;;0.60;0.60;;;;;;;;;;4995211;28;20134;-63
2023/10/08 02:44:42;;;;;;;0.60;0.60;;;;;;;;;;5006285;28;20037;-63
2023/10/08 02:47:09;;;;;;;0.60;0.60;;;;;;;;;;5003410;28;20052;-65
2023/10/08 02:49:34;;;;;;;0.70;0.70;;;;;;;;;;4993704;28;20061;-64
2023/10/08 02:52:00;;;;;;;0.60;0.60;;;;;;;;;;5006365;28;20111;-64
2023/10/08 02:54:31;;;;;;;0.60;0.60;;;;;;;;;;5009712;28;20052;-63
2023/10/08 02:56:58;;;;;;;0.50;0.50;;;;;;;;;;5005440;28;20044;-64
2023/10/08 02:59:27;;;;;;;0.60;0.60;;;;;;;;;;5002810;28;20060;-64
2023/10/08 03:01:55;;;;;;;0.60;0.60;;;;;;;;;;5005493;28;20038;-65
2023/10/08 03:04:22;;;;;;;0.60;0.60;;;;;;;;;;4995010;28;20494;-64
2023/10/08 03:06:52;;;;;;;0.60;0.60;;;;;;;;;;5017426;28;20034;-63
2023/10/08 03:09:23;;;;;;;0.55;0.55;;;;;;;;;;5002538;28;20021;-63
2023/10/08 03:11:49;;;;;;;0.60;0.60;;;;;;;;;;5005136;28;20484;-64
2023/10/08 03:14:21;;;;;;;0.60;0.60;;;;;;;;;;5000554;28;20591;-64
2023/10/08 03:16:48;;;;;;;0.60;0.60;;;;;;;;;;5003414;28;20038;-64
2023/10/08 03:19:18;;;;;;;0.60;0.60;;;;;;;;;;5002657;28;20037;-63
2023/10/08 03:21:50;;;;;;;0.60;0.60;;;;;;;;;;5015666;28;20034;-63
2023/10/08 03:24:37;;;;;;;0.60;0.60;;;;;;;;;;5003095;28;20029;-63
2023/10/08 03:27:06;;;;;;;0.60;0.60;;;;;;;;;;5004786;28;20346;-63
2023/10/08 03:29:41;;;;;;;0.60;0.60;;;;;;;;;;5008776;28;20033;-62
2023/10/08 03:32:15;;;;;;;0.55;0.55;;;;;;;;;;5003415;28;20373;-63
2023/10/08 03:34:46;;;;;;;0.60;0.60;;;;;;;;;;5019132;28;20041;-64
2023/10/08 03:37:19;;;;;;;0.60;0.60;;;;;;;;;;5005275;28;20050;-65
2023/10/08 03:39:51;;;;;;;0.60;0.60;;;;;;;;;;5004270;28;20026;-62
2023/10/08 03:42:23;;;;;;;0.60;0.60;;;;;;;;;;5004674;28;20065;-63
2023/10/08 03:44:52;;;;;;;0.60;0.60;;;;;;;;;;5002021;28;20034;-62
2023/10/08 03:47:23;;;;;;;0.60;0.60;;;;;;;;;;5004454;28;20044;-62
2023/10/08 03:49:51;;;;;;;0.60;0.60;;;;;;;;;;5003370;28;20092;-63
2023/10/08 03:52:19;;;;;;;0.60;0.60;;;;;;;;;;5005470;28;20037;-63
2023/10/08 03:55:04;;;;;;;0.60;0.60;;;;;;;;;;5005069;28;20042;-63
2023/10/08 03:57:41;;;;;;;0.60;0.60;;;;;;;;;;5004359;28;20030;-62
2023/10/08 04:00:11;;;;;;;0.63;0.63;;;;;;;;;;5003045;28;20387;-63
2023/10/08 04:02:41;;;;;;;0.60;0.60;;;;;;;;;;5002850;28;20121;-62
2023/10/08 04:05:19;;;;;;;0.60;0.60;;;;;;;;;;5005212;28;20056;-62
2023/10/08 04:13:03;;;;;;;0.60;0.60;;;;;;;;;;5003965;28;20030;-64
2023/10/08 04:15:29;;;;;;;0.60;0.60;;;;;;;;;;5003592;28;20671;-63
2023/10/08 04:17:54;;;;;;;0.60;0.60;;;;;;;;;;5006633;28;20037;-65
2023/10/08 04:20:38;;;;;;;0.60;0.60;;;;;;;;;;5004632;28;20132;-64
2023/10/08 04:23:05;;;;;;;0.60;0.60;;;;;;;;;;5002947;28;20034;-65
2023/10/08 04:25:31;;;;;;;0.60;0.60;;;;;;;;;;5003759;28;20038;-66
2023/10/08 04:27:59;;;;;;;0.60;0.60;;;;;;;;;;5004353;28;20038;-63
2023/10/08 04:30:32;;;;;;;0.60;0.60;;;;;;;;;;5004018;28;20117;-63
2023/10/08 04:33:14;;;;;;;0.60;0.60;;;;;;;;;;5020835;28;20048;-63
2023/10/08 04:35:55;;;;;;;0.60;0.60;;;;;;;;;;4998577;28;20069;-63
2023/10/08 04:38:26;;;;;;;0.60;0.60;;;;;;;;;;5007607;28;20049;-64
2023/10/08 04:40:51;;;;;;;0.70;0.70;;;;;;;;;;5008102;28;20506;-63
2023/10/08 04:43:25;;;;;;;0.60;0.60;;;;;;;;;;5007791;28;20112;-63
2023/10/08 04:48:46;;;;;;;0.60;0.60;;;;;;;;;;4979461;28;20042;-62
2023/10/08 04:51:14;;;;;;;0.70;0.70;;;;;;;;;;5007086;28;20037;-64
2023/10/08 04:53:44;;;;;;;0.70;0.70;;;;;;;;;;5008095;28;20121;-63
2023/10/08 04:56:19;;;;;;;0.70;0.70;;;;;;;;;;5000630;28;20089;-64
2023/10/08 04:58:47;;;;;;;0.60;0.60;;;;;;;;;;5007081;28;20041;-63
2023/10/08 05:09:12;;;;;;;0.60;0.60;;;;;;;;;;5004984;28;20029;-64
2023/10/08 05:11:46;;;;;;;0.60;0.60;;;;;;;;;;5006065;28;20030;-63
2023/10/08 05:14:34;;;;;;;0.70;0.70;;;;;;;;;;5005141;28;20034;-63
2023/10/08 05:30:25;;;;;;;0.70;0.70;;;;;;;;;;5006202;28;20084;-64
2023/10/08 05:41:04;;;;;;;0.70;0.70;;;;;;;;;;5005998;28;20489;-64
2023/10/08 05:55:14;;;;;;;0.70;0.70;;;;;;;;;;5006429;28;20169;-64
2023/10/08 06:13:10;;;;;;;0.60;0.60;;;;;;;;;;5007129;28;20714;-64
2023/10/08 06:18:25;;;;;;;0.60;0.60;;;;;;;;;;5006322;28;20037;-62
2023/10/08 06:21:01;;;;;;;0.60;0.60;;;;;;;;;;5007633;28;20034;-63
2023/10/08 06:23:32;;;;;;;0.60;0.60;;;;;;;;;;5006200;28;20483;-65
2023/10/08 06:25:58;;;;;;;0.55;0.55;;;;;;;;;;5003834;28;20037;-63
2023/10/08 06:28:25;;;;;;;0.60;0.60;;;;;;;;;;5006264;28;20025;-63
2023/10/08 06:30:55;;;;;;;0.63;0.63;;;;;;;;;;5005612;28;20456;-65
2023/10/08 06:33:21;;;;;;;0.60;0.60;;;;;;;;;;5005860;28;20399;-64
2023/10/08 06:36:02;;;;;;;0.50;0.50;;;;;;;;;;5005816;28;20463;-64
2023/10/08 06:38:30;;;;;;;0.52;0.52;;;;;;;;;;5004954;28;20034;-63
2023/10/08 06:40:59;;;;;;;0.50;0.50;;;;;;;;;;5005696;28;20030;-64
2023/10/08 06:43:25;;;;;;;0.60;0.60;;;;;;;;;;5004636;28;20095;-64
2023/10/08 06:45:57;;;;;;;0.57;0.57;;;;;;;;;;5006950;28;20642;-64
2023/10/08 06:48:23;;;;;;;0.52;0.52;;;;;;;;;;5005452;28;20132;-64
2023/10/08 06:50:49;;;;;;;0.60;0.60;;;;;;;;;;5005679;28;20109;-69
2023/10/08 06:53:15;;;;;;;0.60;0.60;;;;;;;;;;5006400;28;20072;-65
2023/10/08 06:55:43;;;;;;;0.50;0.50;;;;;;;;;;5006463;28;20076;-63
2023/10/08 06:58:09;;;;;;;0.50;0.50;;;;;;;;;;5007370;28;20029;-66
2023/10/08 07:00:55;;;;;;;0.50;0.50;;;;;;;;;;5007311;28;20476;-64
2023/10/08 07:03:20;;;;;;;0.50;0.50;;;;;;;;;;5005709;28;20116;-64
2023/10/08 07:05:59;;;;;;;0.50;0.50;;;;;;;;;;5007332;28;20109;-63
2023/10/08 07:08:26;;;;;;;0.40;0.40;;;;;;;;;;5006223;28;20391;-63
2023/10/08 07:10:53;;;;;;;0.50;0.50;;;;;;;;;;5006516;28;20017;-63
2023/10/08 07:13:21;;;;;;;0.50;0.50;;;;;;;;;;5013400;28;20076;-63
2023/10/08 07:15:49;;;;;;;0.50;0.50;;;;;;;;;;5002522;28;20117;-62
2023/10/08 07:18:14;;;;;;;;;;;;;;;;;;5008051;28;20096;-64
2023/10/08 07:20:45;;;;;;;0.50;0.50;;;;;;;;;;5007412;28;19913;-63
2023/10/08 07:23:18;;;;;;;0.40;0.40;;;;;;;;;;5004908;28;20041;-65
2023/10/08 07:25:51;;;;;;;0.40;0.40;;;;;;;;;;5005794;28;20088;-63
2023/10/08 07:28:19;;;;;;;0.40;0.40;;;;;;;;;;5005114;28;20046;-63
2023/10/08 07:30:44;;;;;;;0.40;0.40;;;;;;;;;;5007248;28;20033;-63
2023/10/08 07:33:17;;;;;;;0.40;0.40;;;;;;;;;;5006852;28;20059;-63
2023/10/08 07:35:57;;;;;;;0.40;0.40;;;;;;;;;;5021827;28;20431;-65
2023/10/08 07:38:22;;;;;;;0.40;0.40;;;;;;;;;;5006528;28;20104;-64
2023/10/08 07:40:48;;;;;;;0.40;0.40;;;;;;;;;;5007376;28;20116;-63
2023/10/08 07:43:13;;;;;;;0.40;0.40;;;;;;;;;;5021960;28;20034;-64
2023/10/08 07:45:40;;;;;;;0.40;0.40;;;;;;;;;;5006814;28;20069;-64
2023/10/08 07:48:09;;;;;;;0.40;0.40;;;;;;;;;;5004858;28;20037;-63
2023/10/08 07:50:37;;;;;;;0.40;0.40;;;;;;;;;;5005367;28;20767;-64
2023/10/08 07:53:04;;;;;;;0.40;0.40;;;;;;;;;;5005964;28;20045;-64
2023/10/08 07:55:32;;;;;;;0.40;0.40;;;;;;;;;;5006671;28;20575;-65
2023/10/08 07:57:58;;;;;;;0.40;0.40;;;;;;;;;;5007175;28;20516;-65
2023/10/08 08:00:25;;;;;;;0.30;0.30;;;;;;;;;;5011282;28;20025;-66
2023/10/08 08:02:53;;;;;;;0.40;0.40;;;;;;;;;;5002452;28;20642;-64
2023/10/08 08:05:18;;;;;;;;;;;;;;;;;;5004374;28;20045;-63
2023/10/08 08:07:46;;;;;;;0.40;0.40;;;;;;;;;;5004800;28;19909;-66
2023/10/08 08:10:11;;;;;;;0.40;0.40;;;;;;;;;;5008466;28;20037;-65
2023/10/08 08:12:37;;;;;;;0.40;0.40;;;;;;;;;;5009752;28;20022;-64
2023/10/08 08:15:14;;;;;;;0.30;0.30;;;;;;;;;;5004317;28;20037;-63
2023/10/08 08:17:40;;;;;;;0.40;0.40;;;;;;;;;;5003946;28;20528;-64
2023/10/08 08:20:17;;;;;;;0.32;0.32;;;;;;;;;;5007918;28;20030;-64
2023/10/08 08:22:45;;;;;;;0.30;0.30;;;;;;;;;;5008673;28;20641;-63
2023/10/08 08:25:26;;;;;;;0.30;0.30;;;;;;;;;;5008262;28;20491;-63
2023/10/08 08:27:52;;;;;;;0.30;0.30;;;;;;;;;;5008791;28;20092;-65
2023/10/08 08:30:19;;;;;;;0.30;0.30;;;;;;;;;;5008221;28;20030;-63
2023/10/08 08:32:48;;;;;;;0.30;0.30;;;;;;;;;;5007673;28;20026;-63
2023/10/08 08:35:16;;;;;;;0.30;0.30;;;;;;;;;;5007485;28;20111;-65
2023/10/08 08:37:42;;;;;;;0.30;0.30;;;;;;;;;;5008695;28;20041;-65
2023/10/08 08:40:29;;;;;;;0.30;0.30;;;;;;;;;;5008594;28;20030;-63
2023/10/08 08:42:55;;;;;;;0.30;0.30;;;;;;;;;;5005444;28;20038;-63
2023/10/08 08:45:20;;;;;;;;;;;;;;;;;;5008510;28;20096;-63
2023/10/08 08:47:45;;;;;;;0.20;0.20;;;;;;;;;;5008317;28;19932;-64
2023/10/08 08:50:11;;;;;;;0.25;0.25;;;;;;;;;;5008000;28;20108;-64
2023/10/08 08:52:37;;;;;;;0.30;0.30;;;;;;;;;;5008688;28;20060;-63
2023/10/08 08:55:06;;;;;;;0.30;0.30;;;;;;;;;;5008036;28;20042;-63
2023/10/08 08:57:33;;;;;;;0.20;0.20;;;;;;;;;;5007055;28;20515;-64
2023/10/08 08:59:59;;;;;;;0.30;0.30;;;;;;;;;;5007294;28;20041;-64
2023/10/08 09:02:24;;;;;;;0.20;0.20;;;;;;;;;;5001721;28;20525;-64
2023/10/08 09:04:49;;;;;;;0.20;0.20;;;;;;;;;;5007061;28;20088;-64
2023/10/08 09:07:14;;;;;;;0.20;0.20;;;;;;;;;;5006054;28;20028;-64
2023/10/08 09:09:40;;;;;;;0.20;0.20;;;;;;;;;;4997409;28;20025;-64
2023/10/08 09:12:05;;;;;;;0.20;0.20;;;;;;;;;;5004342;28;20038;-64
2023/10/08 09:14:34;;;;;;;0.20;0.20;;;;;;;;;;5005235;28;20036;-65
2023/10/08 09:17:00;;;;;;;0.20;0.20;;;;;;;;;;5005298;28;20037;-63
2023/10/08 09:19:26;;;;;;;0.20;0.20;;;;;;;;;;5000022;28;20045;-64
2023/10/08 09:22:01;;;;;;;0.20;0.20;;;;;;;;;;5009179;28;20065;-64
2023/10/08 09:24:26;;;;;;;0.20;0.20;;;;;;;;;;5006999;28;20095;-64
2023/10/08 09:26:52;;;;;;;0.20;0.20;;;;;;;;;;5009136;28;20041;-64
2023/10/08 09:29:17;;;;;;;0.10;0.10;;;;;;;;;;5006229;28;20403;-63
2023/10/08 09:31:51;;;;;;;0.10;0.10;;;;;;;;;;5005718;28;20478;-63
2023/10/08 09:34:16;;;;;;;0.10;0.10;;;;;;;;;;5003824;28;20034;-64
2023/10/08 09:36:42;;;;;;;0.10;0.10;;;;;;;;;;5006370;28;20041;-64
2023/10/08 09:39:07;;;;;;;0.10;0.10;;;;;;;;;;5006496;28;20277;-64
2023/10/08 09:41:34;;;;;;;0.10;0.10;;;;;;;;;;5020407;28;20018;-64
2023/10/08 09:44:00;;;;;;;0.10;0.10;;;;;;;;;;5005509;28;20444;-63
2023/10/08 09:46:29;;;;;;;0.10;0.10;;;;;;;;;;5007434;28;20063;-63
2023/10/08 09:48:59;;;;;;;0.10;0.10;;;;;;;;;;5005655;28;20052;-63
2023/10/08 09:51:28;;;;;;;0.10;0.10;;;;;;;;;;5006065;28;20030;-64
2023/10/08 09:54:10;;;;;;;0.10;0.10;;;;;;;;;;5006562;28;20183;-63
2023/10/08 09:56:36;;;;;;;0.10;0.10;;;;;;;;;;5006436;28;20048;-64
2023/10/08 09:59:02;;;;;;;0.10;0.10;;;;;;;;;;5007920;28;20986;-63
2023/10/08 10:01:28;;;;;;;0.10;0.10;;;;;;;;;;5007316;28;20037;-64
2023/10/08 10:03:53;;;;;;;0.10;0.10;;;;;;;;;;5006597;28;20026;-64
2023/10/08 10:06:18;;;;;;;0.10;0.10;;;;;;;;;;5006779;28;20403;-64
2023/10/08 10:08:44;;;;;;;0.10;0.10;;;;;;;;;;5006584;28;20088;-64
2023/10/08 10:11:10;;;;;;;0.10;0.10;;;;;;;;;;5006345;28;20041;-62
2023/10/08 10:13:44;;;;;;;0.10;0.10;;;;;;;;;;5007097;28;20029;-63
2023/10/08 10:16:13;;;;;;;0.10;0.10;;;;;;;;;;5006133;28;20406;-63
2023/10/08 10:18:39;;;;;;;0.10;0.10;;;;;;;;;;5006457;28;20018;-64
2023/10/08 10:21:13;;;;;;;0.10;0.10;;;;;;;;;;5007104;28;20638;-63
2023/10/08 10:23:45;;;;;;;0.10;0.10;;;;;;;;;;5007127;28;20041;-64
2023/10/08 10:26:30;;;;;;;0.10;0.10;;;;;;;;;;5007010;28;20080;-64
2023/10/08 10:29:07;;;;;;;0.10;0.10;;;;;;;;;;5006724;28;20045;-64
2023/10/08 10:31:34;;;;;;;0.10;0.10;;;;;;;;;;5006328;28;20120;-65
2023/10/08 10:34:04;;;;;;;0.10;0.10;;;;;;;;;;5006665;28;20080;-63
2023/10/08 10:36:31;;;;;;;0.10;0.10;;;;;;;;;;5003197;28;20459;-64
2023/10/08 10:38:56;;;;;;;;;;;;;;;;;;5006412;28;20448;-64
2023/10/08 10:41:22;;;;;;;0.10;0.10;;;;;;;;;;5004647;28;20004;-64
2023/10/08 10:43:52;;;;;;;0.10;0.10;;;;;;;;;;5005336;28;20399;-64
2023/10/08 10:46:29;;;;;;;0.10;0.10;;;;;;;;;;5000358;28;20060;-63
2023/10/08 10:51:41;;;;;;;0.10;0.10;;;;;;;;;;5002846;28;20053;-65
2023/10/08 10:54:19;;;;;;;0.10;0.10;;;;;;;;;;5001326;28;20471;-63
2023/10/08 10:56:47;;;;;;;0.10;0.10;;;;;;;;;;4994799;28;20030;-64
2023/10/08 10:59:18;;;;;;;0.10;0.10;;;;;;;;;;4999314;28;20032;-64
2023/10/08 11:01:52;;;;;;;0.10;0.10;;;;;;;;;;4997169;28;20133;-64
2023/10/08 11:04:19;;;;;;;0.10;0.10;;;;;;;;;;5000138;28;20371;-64
2023/10/08 11:06:45;;;;;;;0.10;0.10;;;;;;;;;;5003041;28;20072;-64
2023/10/08 11:09:15;;;;;;;0.10;0.10;;;;;;;;;;4999898;28;20121;-65
2023/10/08 11:11:44;;;;;;;0.10;0.10;;;;;;;;;;5005200;28;20034;-65
2023/10/08 11:14:15;;;;;;;0.10;0.10;;;;;;;;;;5000721;28;20055;-66
2023/10/08 11:16:43;;;;;;;0.10;0.10;;;;;;;;;;4999658;28;20038;-65
2023/10/08 11:19:09;;;;;;;0.10;0.10;;;;;;;;;;5005359;28;20372;-64
2023/10/08 11:21:47;;;;;;;0.10;0.10;;;;;;;;;;5000359;28;20495;-64
2023/10/08 11:24:24;;;;;;;0.08;0.08;;;;;;;;;;4995621;28;20041;-65
2023/10/08 11:27:06;;;;;;;0.10;0.10;;;;;;;;;;5016754;28;20066;-66
2023/10/08 11:29:32;;;;;;;0.10;0.10;;;;;;;;;;4999156;28;20040;-66
2023/10/08 11:32:00;;;;;;;0.10;0.10;;;;;;;;;;5002284;28;20048;-64
2023/10/08 11:34:36;;;;;;;0.10;0.10;;;;;;;;;;4994770;28;20026;-64
2023/10/08 11:37:07;;;;;;;0.10;0.10;;;;;;;;;;5007392;28;20129;-65
2023/10/08 11:39:45;;;;;;;0.00;0.00;;;;;;;;;;5005504;28;20041;-64
2023/10/08 11:42:40;;;;;;;0.10;0.10;;;;;;;;;;4996704;28;20028;-64
2023/10/08 11:45:18;;;;;;;0.10;0.10;;;;;;;;;;4990696;28;20034;-65
2023/10/08 11:47:48;;;;;;;0.00;0.00;;;;;;;;;;5003053;28;20043;-64
2023/10/08 11:50:19;;;;;;;0.10;0.10;;;;;;;;;;4998314;28;20030;-64
2023/10/08 11:52:44;;;;;;;0.10;0.10;;;;;;;;;;4997058;28;20261;-62
2023/10/08 11:55:10;;;;;;;0.10;0.10;;;;;;;;;;5004404;28;20308;-63
2023/10/08 11:57:36;;;;;;;0.00;0.00;;;;;;;;;;4998312;28;20021;-64
2023/10/08 12:00:18;;;;;;;0.10;0.10;;;;;;;;;;5002867;28;20405;-62
2023/10/08 12:02:47;;;;;;;0.00;0.00;;;;;;;;;;4996561;28;20026;-62
2023/10/08 12:05:18;;;;;;;0.00;0.00;;;;;;;;;;4995717;28;20038;-63
2023/10/08 12:07:47;;;;;;;0.00;0.00;;;;;;;;;;4997962;28;20026;-63
2023/10/08 12:10:13;;;;;;;0.00;0.00;;;;;;;;;;4997392;28;20057;-64
2023/10/08 12:12:39;;;;;;;0.10;0.10;;;;;;;;;;4994544;28;20034;-62
2023/10/08 12:15:07;;;;;;;0.00;0.00;;;;;;;;;;5001663;28;20050;-62
2023/10/08 12:17:42;;;;;;;0.00;0.00;;;;;;;;;;4997448;28;20026;-62
2023/10/08 12:20:34;;;;;;;0.00;0.00;;;;;;;;;;5004086;28;20037;-63
2023/10/08 12:22:53;;;;;;;0.10;0.10;;;;;;;;;;4994395;28;20030;-63
2023/10/08 12:25:19;;;;;;;0.00;0.00;;;;;;;;;;5011147;28;20034;-63
2023/10/08 12:27:44;;;;;;;0.00;0.00;;;;;;;;;;5004250;28;20041;-63
2023/10/08 12:30:10;;;;;;;0.00;0.00;;;;;;;;;;4996848;28;20088;-64
2023/10/08 12:32:42;;;;;;;0.00;0.00;;;;;;;;;;5003322;28;20104;-64
2023/10/08 12:35:12;;;;;;;0.00;0.00;;;;;;;;;;5003041;28;20037;-63
2023/10/08 12:37:38;;;;;;;0.00;0.00;;;;;;;;;;5008256;28;20117;-63
2023/10/08 12:40:11;;;;;;;0.00;0.00;;;;;;;;;;5002341;28;20034;-64
2023/10/08 12:42:38;;;;;;;0.00;0.00;;;;;;;;;;4996670;28;20021;-63
2023/10/08 12:45:11;;;;;;;0.00;0.00;;;;;;;;;;4997321;28;20040;-65
2023/10/08 12:47:37;;;;;;;0.00;0.00;;;;;;;;;;5003282;28;20045;-64
2023/10/08 12:50:07;;;;;;;0.00;0.00;;;;;;;;;;4997243;28;20041;-63
2023/10/08 12:52:34;;;;;;;0.00;0.00;;;;;;;;;;5003598;28;20103;-64
2023/10/08 12:55:03;;;;;;;0.00;0.00;;;;;;;;;;4996155;28;20624;-65
2023/10/08 12:57:34;;;;;;;0.00;0.00;;;;;;;;;;5001592;28;21530;-63
2023/10/08 13:00:00;;;;;;;0.00;0.00;;;;;;;;;;5004814;28;20037;-63
2023/10/08 13:02:28;;;;;;;;;;;;;;;;;;4998475;28;20026;-64
2023/10/08 13:04:54;;;;;;;0.00;0.00;;;;;;;;;;5003738;28;20387;-63
2023/10/08 13:07:21;;;;;;;0.00;0.00;;;;;;;;;;5005474;28;20036;-64
2023/10/08 13:09:47;;;;;;;0.00;0.00;;;;;;;;;;5000548;28;20018;-63
2023/10/08 13:12:15;;;;;;;;;;;;;;;;;;5002997;28;20037;-65
2023/10/08 13:14:40;;;;;;;0.00;0.00;;;;;;;;;;4997660;28;19909;-65
2023/10/08 13:17:10;;;;;;;;;;;;;;;;;;4997177;28;20403;-64
2023/10/08 13:19:36;;;;;;;0.00;0.00;;;;;;;;;;5001658;28;20406;-64
2023/10/08 13:22:01;;;;;;;0.00;0.00;;;;;;;;;;4996655;28;20029;-64
2023/10/08 13:24:28;;;;;;;0.00;0.00;;;;;;;;;;5005193;28;20557;-64
2023/10/08 13:26:54;;;;;;;0.00;0.00;;;;;;;;;;4998465;28;20036;-64
2023/10/08 13:29:19;;;;;;;0.00;0.00;;;;;;;;;;5015235;28;20038;-64
2023/10/08 13:31:46;;;;;;;0.00;0.00;;;;;;;;;;5005226;28;20029;-63
2023/10/08 13:34:12;;;;;;;0.00;0.00;;;;;;;;;;4997313;28;20567;-64
2023/10/08 13:36:37;;;;;;;0.00;0.00;;;;;;;;;;4979135;28;20045;-64
2023/10/08 13:39:04;;;;;;;0.00;0.00;;;;;;;;;;5000725;28;20026;-64
2023/10/08 13:41:29;;;;;;;0.00;0.00;;;;;;;;;;4997033;28;20026;-64
2023/10/08 13:44:05;;;;;;;0.00;0.00;;;;;;;;;;5004849;28;20434;-63
2023/10/08 13:46:31;;;;;;;0.00;0.00;;;;;;;;;;4997809;28;20166;-63
2023/10/08 13:48:57;;;;;;;0.00;0.00;;;;;;;;;;5004592;28;20564;-65
2023/10/08 13:51:25;;;;;;;0.00;0.00;;;;;;;;;;4999067;28;20522;-63
2023/10/08 13:53:59;;;;;;;0.00;0.00;;;;;;;;;;4996104;28;20076;-64
2023/10/08 13:56:26;;;;;;;0.00;0.00;;;;;;;;;;5003645;28;20364;-63
2023/10/08 13:58:56;;;;;;;0.00;0.00;;;;;;;;;;4994286;28;20557;-63
2023/10/08 14:01:21;;;;;;;0.00;0.00;;;;;;;;;;5004085;28;20026;-63
2023/10/08 14:03:47;;;;;;;;;;;;;;;;;;4999590;28;20030;-64
2023/10/08 14:06:12;;;;;;;0.00;0.00;;;;;;;;;;4998973;28;19906;-63
2023/10/08 14:08:38;;;;;;;;;;;;;;;;;;5004605;28;20175;-64
2023/10/08 14:11:04;;;;;;;;;;;;;;;;;;4997029;28;19951;-63
2023/10/08 14:13:31;;;;;;;0.00;0.00;;;;;;;;;;5001963;28;19917;-65
2023/10/08 14:15:57;;;;;;;0.00;0.00;;;;;;;;;;5004450;28;20289;-63
2023/10/08 14:18:26;;;;;;;;;;;;;;;;;;4999951;28;20034;-64
2023/10/08 14:20:53;;;;;;;0.00;0.00;;;;;;;;;;5004335;28;19913;-63
2023/10/08 14:23:22;;;;;;;0.00;0.00;;;;;;;;;;4998282;28;20034;-67
2023/10/08 14:25:50;;;;;;;0.00;0.00;;;;;;;;;;4999588;28;20021;-65
2023/10/08 14:28:21;;;;;;;0.00;0.00;;;;;;;;;;5003143;28;20037;-63
2023/10/08 14:30:55;;;;;;;0.00;0.00;;;;;;;;;;5011882;28;20048;-64
2023/10/08 14:33:26;;;;;;;0.00;0.00;;;;;;;;;;5003786;28;20345;-64
2023/10/08 14:44:03;;;;;;;0.00;0.00;;;;;;;;;;4998979;28;20133;-64
2023/10/08 14:46:32;;;;;;;0.00;0.00;;;;;;;;;;4990545;28;20072;-66
2023/10/08 14:48:58;;;;;;;0.00;0.00;;;;;;;;;;5003560;28;20037;-63
2023/10/08 14:51:24;;;;;;;0.00;0.00;;;;;;;;;;4996493;28;20075;-64
2023/10/08 14:53:49;;;;;;;0.00;0.00;;;;;;;;;;5000979;28;20026;-64
2023/10/08 14:56:15;;;;;;;0.00;0.00;;;;;;;;;;5000253;28;20045;-64
2023/10/08 14:58:41;;;;;;;0.00;0.00;;;;;;;;;;4996467;28;20499;-63
2023/10/08 15:01:06;;;;;;;0.00;0.00;;;;;;;;;;5003100;28;20034;-63
2023/10/08 15:03:32;;;;;;;0.00;0.00;;;;;;;;;;4998759;28;20038;-63
2023/10/08 15:05:57;;;;;;;0.00;0.00;;;;;;;;;;4996681;28;20037;-64
2023/10/08 15:08:23;;;;;;;0.00;0.00;;;;;;;;;;4977677;28;20034;-61
2023/10/08 15:10:49;;;;;;;0.00;0.00;;;;;;;;;;4977251;28;20014;-65
2023/10/08 15:13:15;;;;;;;0.00;0.00;;;;;;;;;;4982976;28;20034;-62
2023/10/08 15:15:42;;;;;;;0.00;0.00;;;;;;;;;;4975050;28;20121;-63
2023/10/08 15:18:11;;;;;;;0.00;0.00;;;;;;;;;;4976865;28;20377;-64
2023/10/08 15:20:37;;;;;;;0.00;0.00;;;;;;;;;;4981590;28;20074;-65
2023/10/08 15:23:03;;;;;;;0.00;0.00;;;;;;;;;;4976012;28;20050;-63
2023/10/08 15:25:28;;;;;;;0.00;0.00;;;;;;;;;;4984073;28;20471;-64
2023/10/08 15:27:54;;;;;;;0.00;0.00;;;;;;;;;;4978111;28;20030;-65
2023/10/08 15:30:20;;;;;;;0.00;0.00;;;;;;;;;;4974613;28;20520;-65
2023/10/08 15:58:06;;;;;;;0.00;0.00;;;;;;;25.99;41.80;99166.50;5050060;27;20380;-75
